createdAt,value
2023-01-02T00:02:14.296Z,26.83
2023-01-02T00:06:18.153Z,27.13
2023-01-02T00:10:20.127Z,24.52
2023-01-02T00:14:21.843Z,28.15
2023-01-02T00:18:23.836Z,28.10
2023-01-02T00:22:25.652Z,23.90
2023-01-02T00:26:30.048Z,28.92
2023-01-02T00:30:37.992Z,23.40
2023-01-02T00:34:40.236Z,27.42
2023-01-02T00:38:43.112Z,24.55
2023-01-02T00:42:44.911Z,28.95
2023-01-02T00:46:47.150Z,28.85
2023-01-02T00:50:49.463Z,22.73
2023-01-02T00:54:51.584Z,24.40
2023-01-02T00:58:53.274Z,22.27
2023-01-02T01:02:59.053Z,27.88
2023-01-02T01:07:01.093Z,27.42
2023-01-02T01:11:12.217Z,27.45
2023-01-02T01:15:14.130Z,24.20
2023-01-02T01:19:16.114Z,25.13
2023-01-02T01:23:17.778Z,23.17
2023-01-02T01:27:19.855Z,25.13
2023-01-02T01:31:22.881Z,29.35
2023-01-02T01:35:24.919Z,29.13
2023-01-02T01:39:26.748Z,29.83
2023-01-02T01:43:35.559Z,23.10
2023-01-02T01:47:40.781Z,28.52
2023-01-02T01:52:06.130Z,25.35
2023-01-02T01:56:10.584Z,23.90
2023-01-02T02:00:12.965Z,27.55
2023-01-02T02:04:18.471Z,26.02
2023-01-02T02:08:45.063Z,27.38
2023-01-02T02:12:46.982Z,23.42
2023-01-02T02:17:01.454Z,24.55
2023-01-02T02:21:24.933Z,32.58
2023-01-02T02:26:05.365Z,22.75
2023-01-02T02:30:21.497Z,24.65
2023-01-02T02:34:32.502Z,34.05
2023-01-02T02:38:58.840Z,30.27
2023-01-02T02:43:24.859Z,28.10
2023-01-02T02:47:44.321Z,28.23
2023-01-02T02:51:56.034Z,31.08
2023-01-02T02:56:01.502Z,26.13
2023-01-02T03:00:08.841Z,35.75
2023-01-02T03:04:19.315Z,26.35
2023-01-02T03:08:32.990Z,30.30
2023-01-02T03:12:48.611Z,24.83
2023-01-02T03:16:58.050Z,27.88
2023-01-02T03:21:06.231Z,25.98
2023-01-02T03:25:10.909Z,27.60
2023-01-02T03:29:21.632Z,28.65
2023-01-02T03:33:30.064Z,31.00
2023-01-02T03:41:50.755Z,26.00
2023-01-02T03:46:19.259Z,27.25
2023-01-02T03:50:34.686Z,29.58
2023-01-02T03:54:37.889Z,40.38
2023-01-02T03:58:51.480Z,27.65
2023-01-02T04:03:11.990Z,41.50
2023-01-02T04:07:24.197Z,28.33
2023-01-02T04:11:29.753Z,29.00
2023-01-02T04:15:34.330Z,26.70
2023-01-02T04:20:01.802Z,25.83
2023-01-02T04:24:21.605Z,29.48
2023-01-02T04:28:29.648Z,24.27
2023-01-02T04:32:44.524Z,28.63
2023-01-02T04:36:46.511Z,27.27
2023-01-02T04:40:49.049Z,32.50
2023-01-02T04:44:51.012Z,30.38
2023-01-02T04:48:54.221Z,31.08
2023-01-02T04:52:56.242Z,28.35
2023-01-02T04:56:57.922Z,29.10
2023-01-02T05:01:00.237Z,28.98
2023-01-02T05:05:02.161Z,30.15
2023-01-02T05:09:04.185Z,32.53
2023-01-02T05:13:06.101Z,31.30
2023-01-02T05:17:08.005Z,26.05
2023-01-02T05:21:30.879Z,33.13
2023-01-02T05:25:35.415Z,33.45
2023-01-02T05:29:37.153Z,27.83
2023-01-02T05:33:39.414Z,36.22
2023-01-02T05:37:41.336Z,26.73
2023-01-02T05:41:43.680Z,32.88
2023-01-02T05:45:45.403Z,32.45
2023-01-02T05:49:47.385Z,26.83
2023-01-02T05:53:49.116Z,32.67
2023-01-02T05:57:55.139Z,29.73
2023-01-02T06:01:56.882Z,29.80
2023-01-02T06:06:06.707Z,31.95
2023-01-02T06:10:08.916Z,33.97
2023-01-02T06:14:11.056Z,26.83
2023-01-02T06:18:12.791Z,27.02
2023-01-02T06:22:14.752Z,32.55
2023-01-02T06:26:19.124Z,26.02
2023-01-02T06:30:21.105Z,30.00
2023-01-02T06:34:22.809Z,26.70
2023-01-02T06:38:24.766Z,37.63
2023-01-02T06:42:26.560Z,25.08
2023-01-02T06:46:28.921Z,27.67
2023-01-02T06:50:34.906Z,31.25
2023-01-02T06:54:37.265Z,24.95
2023-01-02T06:58:39.549Z,28.77
2023-01-02T07:02:42.250Z,25.75
2023-01-02T07:06:44.209Z,27.95
2023-01-02T07:10:50.968Z,28.90
2023-01-02T07:14:54.847Z,27.35
2023-01-02T07:18:56.781Z,31.08
2023-01-02T07:22:58.576Z,30.33
2023-01-02T07:27:00.732Z,29.17
2023-01-02T07:31:05.297Z,29.10
2023-01-02T07:35:08.196Z,28.83
2023-01-02T07:39:10.153Z,28.80
2023-01-02T07:43:12.065Z,25.25
2023-01-02T07:47:13.805Z,30.67
2023-01-02T07:51:19.800Z,26.48
2023-01-02T07:55:26.376Z,28.05
2023-01-02T07:59:28.404Z,26.00
2023-01-02T08:03:31.057Z,27.00
2023-01-02T08:07:33.088Z,20.75
2023-01-02T08:11:35.274Z,24.75
2023-01-02T08:15:37.773Z,26.00
2023-01-02T08:19:39.472Z,27.17
2023-01-02T08:23:41.497Z,25.95
2023-01-02T08:27:43.287Z,27.75
2023-01-02T08:31:45.223Z,27.52
2023-01-02T08:35:46.976Z,27.73
2023-01-02T08:39:48.939Z,31.85
2023-01-02T08:43:50.579Z,33.95
2023-01-02T08:47:52.677Z,29.42
2023-01-02T08:51:54.359Z,24.80
2023-01-02T08:56:17.028Z,29.05
2023-01-02T09:00:19.156Z,29.02
2023-01-02T09:04:21.283Z,31.05
2023-01-02T09:08:23.042Z,25.60
2023-01-02T09:12:25.708Z,31.10
2023-01-02T09:16:27.944Z,28.38
2023-01-02T09:20:29.644Z,31.83
2023-01-02T09:24:31.651Z,34.75
2023-01-02T09:28:35.351Z,27.25
2023-01-02T09:32:37.284Z,30.15
2023-01-02T09:36:39.515Z,28.15
2023-01-02T09:40:53.165Z,29.38
2023-01-02T09:45:01.685Z,33.45
2023-01-02T09:49:14.407Z,30.10
2023-01-02T09:53:16.393Z,30.67
2023-01-02T09:57:27.218Z,31.73
2023-01-02T10:02:16.644Z,31.20
2023-01-02T10:06:25.055Z,27.05
2023-01-02T10:10:26.803Z,32.40
2023-01-02T10:14:53.839Z,28.60
2023-01-02T10:18:56.747Z,29.05
2023-01-02T10:23:03.186Z,28.42
2023-01-02T10:27:12.462Z,29.00
2023-01-02T10:31:45.118Z,31.35
2023-01-02T10:35:53.237Z,22.92
2023-01-02T10:39:55.151Z,24.75
2023-01-02T10:44:04.651Z,23.00
2023-01-02T10:48:06.865Z,26.20
2023-01-02T10:52:31.527Z,30.85
2023-01-02T10:56:36.440Z,29.52
2023-01-02T11:00:38.708Z,28.63
2023-01-02T11:04:42.673Z,38.00
2023-01-02T11:08:44.705Z,32.00
2023-01-02T11:12:48.216Z,35.35
2023-01-02T11:16:50.677Z,27.88
2023-01-02T11:20:57.087Z,26.38
2023-01-02T11:25:02.512Z,22.75
2023-01-02T11:29:13.294Z,27.60
2023-01-02T11:33:24.166Z,30.65
2023-01-02T11:37:26.416Z,24.25
2023-01-02T11:41:58.444Z,26.05
2023-01-02T11:46:01.326Z,28.92
2023-01-02T11:50:03.610Z,28.83
2023-01-02T11:54:13.726Z,27.10
2023-01-02T11:58:31.032Z,25.05
2023-01-02T12:02:40.786Z,27.33
2023-01-02T12:06:59.803Z,22.10
2023-01-02T12:11:20.124Z,25.70
2023-01-02T12:15:36.582Z,32.85
2023-01-02T12:19:53.523Z,25.42
2023-01-02T12:24:14.083Z,25.40
2023-01-02T12:28:32.699Z,24.92
2023-01-02T12:32:46.341Z,27.52
2023-01-02T12:37:26.926Z,29.58
2023-01-02T12:42:11.561Z,27.63
2023-01-02T12:46:43.626Z,27.98
2023-01-02T12:51:12.829Z,31.00
2023-01-02T12:55:17.713Z,31.33
2023-01-02T12:59:43.820Z,33.08
2023-01-02T13:04:04.968Z,27.40
2023-01-02T13:08:16.806Z,30.08
2023-01-02T13:12:22.094Z,28.75
2023-01-02T13:16:25.765Z,27.08
2023-01-02T13:20:57.644Z,27.17
2023-01-02T13:25:01.653Z,29.30
2023-01-02T13:29:09.177Z,25.95
2023-01-02T13:33:16.923Z,27.90
2023-01-02T13:37:21.925Z,26.83
2023-01-02T13:41:25.319Z,23.55
2023-01-02T13:45:43.027Z,30.58
2023-01-02T13:49:50.312Z,26.73
2023-01-02T13:53:53.802Z,24.05
2023-01-02T13:58:18.163Z,24.55
2023-01-02T14:02:22.462Z,38.38
2023-01-02T14:06:34.269Z,25.48
2023-01-02T14:10:41.340Z,35.67
2023-01-02T14:14:49.924Z,27.23
2023-01-02T14:19:05.269Z,27.23
2023-01-02T14:23:09.500Z,29.80
2023-01-02T14:27:31.319Z,31.27
2023-01-02T14:31:34.684Z,24.33
2023-01-02T14:35:55.086Z,27.10
2023-01-02T14:40:17.289Z,31.75
2023-01-02T14:44:20.407Z,24.75
2023-01-02T14:48:31.361Z,29.95
2023-01-02T14:52:39.396Z,29.30
2023-01-02T14:56:44.214Z,31.17
2023-01-02T15:00:47.607Z,26.77
2023-01-02T15:05:06.208Z,28.45
2023-01-02T15:09:17.726Z,25.50
2023-01-02T15:13:21.956Z,40.03
2023-01-02T15:17:24.371Z,31.55
2023-01-02T15:21:29.501Z,34.40
2023-01-02T15:25:41.378Z,31.83
2023-01-02T15:29:48.095Z,37.97
2023-01-02T15:33:59.976Z,50.72
2023-01-02T15:38:04.635Z,55.92
2023-01-02T15:42:26.771Z,51.35
2023-01-02T15:46:29.223Z,45.70
2023-01-02T15:50:32.121Z,45.08
2023-01-02T15:54:37.102Z,47.67
2023-01-02T15:58:48.220Z,42.60
2023-01-02T16:02:50.225Z,39.60
2023-01-02T16:06:52.392Z,41.00
2023-01-02T16:11:01.163Z,43.78
2023-01-02T16:15:03.797Z,43.63
2023-01-02T16:19:05.769Z,51.47
2023-01-02T16:23:14.184Z,55.10
2023-01-02T16:27:25.855Z,55.15
2023-01-02T16:31:28.945Z,49.20
2023-01-02T16:35:37.420Z,43.08
2023-01-02T16:39:41.121Z,44.35
2023-01-02T16:43:46.252Z,41.22
2023-01-02T16:47:48.669Z,42.08
2023-01-02T16:51:53.264Z,35.90
2023-01-02T16:55:55.355Z,44.58
2023-01-02T16:59:57.342Z,37.85
2023-01-02T17:03:59.038Z,35.25
2023-01-02T17:08:00.924Z,33.78
2023-01-02T17:12:03.757Z,37.53
2023-01-02T17:16:06.810Z,41.17
2023-01-02T17:20:10.684Z,47.78
2023-01-02T17:24:12.629Z,42.88
2023-01-02T17:28:14.910Z,43.35
2023-01-02T17:32:18.195Z,52.03
2023-01-02T17:36:20.090Z,43.05
2023-01-02T17:40:21.961Z,41.58
2023-01-02T17:44:23.722Z,42.03
2023-01-02T17:48:25.713Z,45.35
2023-01-02T17:52:28.031Z,42.85
2023-01-02T17:56:30.803Z,38.83
2023-01-02T18:00:32.550Z,37.22
2023-01-02T18:04:34.530Z,37.83
2023-01-02T18:08:37.924Z,42.92
2023-01-02T18:12:39.826Z,43.03
2023-01-02T18:16:42.222Z,43.15
2023-01-02T18:20:46.505Z,40.33
2023-01-02T18:24:49.067Z,36.70
2023-01-02T18:29:01.529Z,37.63
2023-01-02T18:33:18.515Z,37.92
2023-01-02T18:37:26.635Z,35.72
2023-01-02T18:41:31.599Z,36.23
2023-01-02T18:45:33.556Z,33.72
2023-01-02T18:49:42.885Z,46.05
2023-01-02T18:53:53.518Z,52.70
2023-01-02T18:58:15.478Z,49.65
2023-01-02T19:02:39.711Z,58.97
2023-01-02T19:06:46.442Z,80.35
2023-01-02T19:10:53.186Z,73.95
2023-01-02T19:14:55.305Z,57.83
2023-01-02T19:18:57.256Z,65.18
2023-01-02T19:23:00.165Z,60.90
2023-01-02T19:27:08.977Z,46.58
2023-01-02T19:31:15.949Z,45.45
2023-01-02T19:35:38.435Z,61.25
2023-01-02T19:40:02.962Z,48.33
2023-01-02T19:44:04.765Z,49.67
2023-01-02T19:48:06.788Z,45.05
2023-01-02T19:52:10.160Z,44.55
2023-01-02T19:56:12.451Z,57.30
2023-01-02T20:00:16.551Z,46.70
2023-01-02T20:04:18.321Z,41.85
2023-01-02T20:08:20.306Z,43.80
2023-01-02T20:12:34.211Z,44.60
2023-01-02T20:16:36.215Z,44.03
2023-01-02T20:20:38.259Z,70.55
2023-01-02T20:24:40.285Z,61.72
2023-01-02T20:28:41.997Z,52.70
2023-01-02T20:32:43.927Z,52.13
2023-01-02T20:36:46.347Z,48.03
2023-01-02T20:40:48.228Z,45.30
2023-01-02T20:44:50.588Z,44.55
2023-01-02T20:48:52.813Z,37.88
2023-01-02T20:52:57.007Z,46.17
2023-01-02T20:56:59.336Z,56.22
2023-01-02T21:01:02.002Z,46.72
2023-01-02T21:05:04.816Z,64.03
2023-01-02T21:09:06.537Z,58.85
2023-01-02T21:13:09.411Z,52.13
2023-01-02T21:17:11.047Z,55.65
2023-01-02T21:21:17.560Z,66.15
2023-01-02T21:25:19.296Z,61.78
2023-01-02T21:29:21.189Z,49.00
2023-01-02T21:33:25.047Z,48.15
2023-01-02T21:37:26.744Z,45.85
2023-01-02T21:41:47.373Z,48.15
2023-01-02T21:45:49.979Z,50.03
2023-01-02T21:49:52.920Z,44.42
2023-01-02T21:53:56.026Z,44.60
2023-01-02T21:58:15.663Z,44.80
2023-01-02T22:02:18.164Z,43.60
2023-01-02T22:06:19.968Z,45.05
2023-01-02T22:10:21.862Z,43.50
2023-01-02T22:14:29.046Z,49.42
2023-01-02T22:18:36.217Z,57.67
2023-01-02T22:22:39.669Z,66.85
2023-01-02T22:26:43.463Z,112.60
2023-01-02T22:30:45.199Z,62.15
2023-01-02T22:34:47.251Z,48.33
2023-01-02T22:39:17.516Z,38.65
2023-01-02T22:43:16.810Z,35.92
2023-01-02T22:47:32.510Z,35.17
2023-01-02T22:52:05.474Z,51.35
2023-01-02T22:55:58.488Z,44.63
2023-01-02T23:00:00.106Z,40.78
2023-01-02T23:04:03.255Z,27.98
2023-01-02T23:08:05.252Z,32.97
2023-01-02T23:12:07.589Z,25.00
2023-01-02T23:16:28.185Z,31.40
2023-01-02T23:20:30.244Z,25.20
2023-01-02T23:24:34.892Z,27.63
2023-01-02T23:29:06.160Z,24.15
2023-01-02T23:32:58.517Z,28.27
2023-01-02T23:37:01.304Z,30.25
2023-01-02T23:41:03.522Z,25.75
2023-01-02T23:45:05.749Z,41.08
2023-01-02T23:49:08.827Z,40.53
2023-01-02T23:53:10.806Z,27.40
2023-01-02T23:57:12.458Z,22.48
